Hawaiian A332 at Las Vegas on Oct 1st 2023, lightning strike

Last Update: October 3, 2023 / 19:55:24 GMT/Zulu time

Bookmark this article
Incident Facts

Date of incident
Oct 1, 2023

Classification
Incident

Flight number
HA-5

Aircraft Registration
N393HA

Aircraft Type
Airbus A330-200

ICAO Type Designator
A332

Airport ICAO Code
KLAS

A Hawaiian Airlines Airbus A330-200, registration N393HA performing flight HA-5 from Las Vegas,NV to Honolulu,HI (USA) with 278 passengers and 11 crew, was climbing out of Las Vegas' runway 26R when the crew stopped the climb at about 15500 feet following a lightning strike and decided to return to Las Vegas. The aircraft landed safely on runway 26L about 20 minutes after departure.

The flight was cancelled.

The airline reported the aircraft sustained a lightning strike.

The occurrence aircraft is still on the ground in Las Vegas about 38 hours after landing back.

Metars:
KLAS 020456Z 24005G16KT 10SM FEW045 BKN100 16/06 A2989 RMK AO2 PK WND 26029/0416 SLP109 SH DSNT W-NW T01610056=
KLAS 020442Z 26010G18KT 10SM FEW045 BKN100 16/06 A2988 RMK AO2 PK WND 26029/0416 SH DSNT W-NW T01610056=
KLAS 020356Z 26016G24KT 10SM FEW045 BKN100 17/06 A2986 RMK AO2 PK WND 27028/0322 LTG DSNT SW SLP099 SH DSNT W-NW T01670056=
KLAS 020256Z 27009KT 10SM FEW030 BKN080 17/09 A2984 RMK AO2 LTG DSNT SW RAE43 TSE52 SLP093 SH DSNT SW AND W-NW P0009 60013 T01720089 53012=
KLAS 020156Z 24009G23KT 210V280 7SM -TSRA FEW045 BKN080CB 17/07 A2981 RMK AO2 RAB36 TSB22E37B38 SLP082 CONS LTGICCC OHD-S-W TS OHD-S-W MOV N P0004 T01720072=
KLAS 020128Z 34006KT 10SM TS FEW050 BKN090CB BKN180 22/04 A2980 RMK AO2 LTG DSNT S AND SW TSB22 OCNL LTGICCC S TS S MOV N T02220039=
KLAS 020056Z 01006KT 10SM FEW060 BKN090 BKN180 22/03 A2980 RMK AO2 SLP077 CB DSNT S SH DSNT S AND W T02220033=
KLAS 012356Z 00000KT 10SM FEW050 SCT100 SCT180 22/04 A2981 RMK AO2 SLP078 ACC DSNT E-SE CB DSNT SW AND W-NW SH DSNT SW AND W-NW T02220039 10233 20194 55005=
KLAS 012256Z 12005KT 10SM FEW050 SCT100 22/04 A2980 RMK AO2 SLP077 ACC DSNT E-SE TCU DSNT SW CB DSNT NW T02220039=
KLAS 012156Z 00000KT 10SM FEW075 BKN100 22/03 A2981 RMK AO2 SLP081 CB DSNT NW T02170033=
Aircraft Registration Data
Registration mark
N393HA
Country of Registration
United States
Date of Registration
Qiklnmbdbcmim Subscribe to unlock
TCDS Ident. No.
Manufacturer
AIRBUS
Aircraft Model / Type
A330-243
Number of Seats
ICAO Aircraft Type
A332
Year of Manufacture
Serial Number
Aircraft Address / Mode S Code (HEX)
Engine Count
Engine Manufacturer
Engine Model
Engine Type
Pounds of Thrust
Main Owner
Kgmppi dcqlnqlb ikdjecllljkkibghcqdqqhAbphjmggAjei lehhnpgbiAhAcjeinijdAppifAkeflq q Subscribe to unlock
Incident Facts

Date of incident
Oct 1, 2023

Classification
Incident

Flight number
HA-5

Aircraft Registration
N393HA

Aircraft Type
Airbus A330-200

ICAO Type Designator
A332

Airport ICAO Code
KLAS

This article is published under license from Avherald.com. © of text by Avherald.com.
Article source

You can read 2 more free articles without a subscription.

Subscribe now and continue reading without any limits!

Are you a subscriber? Login
Subscribe

Read unlimited articles and receive our daily update briefing. Gain better insights into what is happening in commercial aviation safety.

Send tip

Support AeroInside by sending a small tip amount.

Related articles

Newest articles

Subscribe today

Are you researching aviation incidents? Get access to AeroInside Insights, unlimited read access and receive the daily newsletter.

Pick your plan and subscribe

Partner

Blockaviation logo

A new way to document and demonstrate airworthiness compliance and aircraft value. Find out more.

ELITE Logo

ELITE Simulation Solutions is a leading global provider of Flight Simulation Training Devices, IFR training software as well as flight controls and related services. Find out more.

Blue Altitude Logo

Your regulation partner, specialists in aviation safety and compliance; providing training, auditing, and consultancy services. Find out more.

AeroInside Blog
Popular aircraft
Airbus A320
Boeing 737-800
Boeing 737-800 MAX
Popular airlines
American Airlines
United
Delta
Air Canada
Lufthansa
British Airways